Time;durP1;ratioP1;P1;durP2;ratioP2;P2;SDS_P1;SDS_P2;PMS_P1;PMS_P2;Temp;Humidity;BMP_temperature;BMP_pressure;BME280_temperature;BME280_humidity;BME280_pressure;Samples;Min_cycle;Max_cycle;Signal;HPM_P1;HPM_P2
2021/09/01 00:01:41;;;;;;;21.23;12.40;;;10.20;93.40;;;;;;5068965;28;20073;-70
2021/09/01 00:04:06;;;;;;;21.88;13.27;;;10.20;93.50;;;;;;5068206;28;20025;-71
2021/09/01 00:06:32;;;;;;;24.45;13.95;;;10.20;93.40;;;;;;5071126;28;20048;-69
2021/09/01 00:08:58;;;;;;;22.48;13.20;;;10.10;93.60;;;;;;5072352;28;20043;-70
2021/09/01 00:11:23;;;;;;;16.95;10.95;;;10.10;93.90;;;;;;5070021;28;20111;-71
2021/09/01 00:13:49;;;;;;;22.88;13.32;;;10.00;94.10;;;;;;5073608;28;20043;-70
2021/09/01 00:16:28;;;;;;;19.00;12.45;;;9.90;94.10;;;;;;5070060;28;20017;-71
2021/09/01 00:18:55;;;;;;;20.13;11.63;;;9.80;93.90;;;;;;5073018;28;20066;-71
2021/09/01 00:21:22;;;;;;;23.23;13.52;;;9.80;93.40;;;;;;5072741;28;20024;-70
2021/09/01 00:23:48;;;;;;;22.02;13.32;;;9.90;92.90;;;;;;5066802;28;20024;-71
2021/09/01 00:26:14;;;;;;;24.23;13.52;;;10.00;92.90;;;;;;5073273;28;20333;-70
2021/09/01 00:28:39;;;;;;;25.08;15.18;;;10.00;93.20;;;;;;5069243;28;20107;-71
2021/09/01 00:31:05;;;;;;;26.45;16.38;;;10.00;92.90;;;;;;5065427;28;20442;-71
2021/09/01 00:33:30;;;;;;;25.90;14.52;;;10.00;92.80;;;;;;5067052;28;20025;-71
2021/09/01 00:35:56;;;;;;;23.90;14.82;;;10.00;93.20;;;;;;5066283;28;20040;-71
2021/09/01 00:38:22;;;;;;;20.80;13.52;;;10.00;93.10;;;;;;5064258;28;20032;-71
2021/09/01 00:41:22;;;;;;;25.27;14.68;;;10.00;92.70;;;;;;5066949;28;20317;-71
2021/09/01 00:43:49;;;;;;;22.42;13.85;;;10.00;92.70;;;;;;5064445;28;20017;-71
2021/09/01 00:46:16;;;;;;;27.88;14.82;;;9.90;93.20;;;;;;5068277;28;20425;-71
2021/09/01 00:48:42;;;;;;;22.70;13.65;;;9.80;93.40;;;;;;5062841;28;20024;-71
2021/09/01 00:51:10;;;;;;;25.40;15.02;;;9.90;92.90;;;;;;5065951;28;20041;-72
2021/09/01 00:53:41;;;;;;;25.40;14.23;;;9.80;93.00;;;;;;5066832;28;20025;-71
2021/09/01 00:56:07;;;;;;;25.98;15.05;;;9.80;92.80;;;;;;5068989;28;20455;-71
2021/09/01 00:58:36;;;;;;;29.00;16.42;;;9.80;92.70;;;;;;5067211;28;20024;-72
2021/09/01 01:01:15;;;;;;;27.40;15.70;;;9.80;92.50;;;;;;5074922;28;20021;-71
2021/09/01 01:03:45;;;;;;;29.70;16.90;;;9.90;92.50;;;;;;5067752;28;20024;-71
2021/09/01 01:06:11;;;;;;;28.85;15.65;;;9.90;92.40;;;;;;5078046;28;20055;-71
2021/09/01 01:08:37;;;;;;;22.75;14.05;;;9.90;92.30;;;;;;5065503;28;20025;-71
2021/09/01 01:11:03;;;;;;;22.55;14.48;;;9.90;92.80;;;;;;5072098;28;20036;-71
2021/09/01 01:13:29;;;;;;;31.38;16.98;;;9.80;92.70;;;;;;5061818;28;20032;-73
2021/09/01 01:15:58;;;;;;;25.65;14.93;;;9.80;92.40;;;;;;5071124;28;20068;-71
2021/09/01 01:18:23;;;;;;;27.55;15.77;;;9.80;92.30;;;;;;5068504;28;20421;-71
2021/09/01 01:20:51;;;;;;;25.08;15.10;;;9.80;92.40;;;;;;5066571;28;20048;-71
2021/09/01 01:23:18;;;;;;;32.72;16.65;;;9.80;92.50;;;;;;5066063;28;20020;-71
2021/09/01 01:25:44;;;;;;;25.30;15.38;;;9.80;92.20;;;;;;5068256;28;20437;-71
2021/09/01 01:28:11;;;;;;;29.42;16.45;;;9.80;92.20;;;;;;5070691;28;20112;-71
2021/09/01 01:30:38;;;;;;;20.60;13.68;;;9.80;92.20;;;;;;5075776;28;20020;-71
2021/09/01 01:33:05;;;;;;;29.10;15.63;;;9.80;92.10;;;;;;5073599;28;20447;-71
2021/09/01 01:35:36;;;;;;;24.88;14.57;;;9.70;92.40;;;;;;5064800;28;20032;-71
2021/09/01 01:38:06;;;;;;;27.75;15.82;;;9.70;92.30;;;;;;5077419;28;20020;-71
2021/09/01 01:40:34;;;;;;;22.30;13.52;;;9.70;92.10;;;;;;5074042;28;20017;-72
2021/09/01 01:43:00;;;;;;;23.10;14.23;;;9.70;92.10;;;;;;5071625;28;20173;-71
2021/09/01 01:45:36;;;;;;;24.83;15.02;;;9.70;92.00;;;;;;5065003;28;20045;-71
2021/09/01 01:48:04;;;;;;;25.98;14.88;;;9.70;92.10;;;;;;5073385;28;20029;-71
2021/09/01 01:50:31;;;;;;;24.38;14.73;;;9.70;91.80;;;;;;5066854;28;20078;-71
2021/09/01 01:52:57;;;;;;;23.67;13.55;;;9.70;92.30;;;;;;5077778;28;20028;-71
2021/09/01 01:55:23;;;;;;;21.75;13.38;;;9.70;92.00;;;;;;5072898;28;20421;-71
2021/09/01 01:57:48;;;;;;;19.98;13.25;;;9.70;92.00;;;;;;5066421;28;20079;-71
2021/09/01 02:00:14;;;;;;;24.25;13.95;;;9.70;92.00;;;;;;5074346;28;20024;-71
2021/09/01 02:02:41;;;;;;;19.52;13.18;;;9.70;92.00;;;;;;5064944;28;20329;-72
2021/09/01 02:05:07;;;;;;;26.45;14.88;;;9.60;92.40;;;;;;5067761;28;20049;-72
2021/09/01 02:07:33;;;;;;;20.02;12.23;;;9.60;91.50;;;;;;5074916;28;20021;-71
2021/09/01 02:09:59;;;;;;;20.00;13.27;;;9.60;92.10;;;;;;5067098;28;20318;-72
2021/09/01 02:12:31;;;;;;;17.25;12.35;;;9.50;92.60;;;;;;5066033;28;20096;-72
2021/09/01 02:14:58;;;;;;;21.92;13.07;;;9.40;92.50;;;;;;5066187;28;20025;-72
2021/09/01 02:17:27;;;;;;;17.45;11.60;;;9.40;92.10;;;;;;5069707;28;20419;-71
2021/09/01 02:19:53;;;;;;;20.52;11.10;;;9.30;92.40;;;;;;5068946;28;20024;-71
2021/09/01 02:22:19;;;;;;;21.88;12.27;;;9.10;93.30;;;;;;5069730;28;20028;-71
2021/09/01 02:24:45;;;;;;;18.85;11.63;;;9.20;91.80;;;;;;5071518;28;20031;-71
2021/09/01 02:27:11;;;;;;;20.02;11.98;;;9.30;91.60;;;;;;5069926;28;20032;-71
2021/09/01 02:29:36;;;;;;;19.85;12.45;;;9.20;92.70;;;;;;5065679;28;20028;-71
2021/09/01 02:32:03;;;;;;;20.67;13.10;;;9.10;92.80;;;;;;5066326;28;20024;-71
2021/09/01 02:34:29;;;;;;;25.38;13.48;;;9.10;92.30;;;;;;5066166;28;20481;-71
2021/09/01 02:36:56;;;;;;;26.98;13.27;;;9.20;92.10;;;;;;5069232;28;20116;-71
2021/09/01 02:39:21;;;;;;;18.08;10.68;;;9.10;92.70;;;;;;5073923;28;20050;-71
2021/09/01 02:41:47;;;;;;;21.17;12.45;;;9.00;93.30;;;;;;5070421;28;20020;-71
2021/09/01 02:44:13;;;;;;;18.98;11.30;;;8.90;92.90;;;;;;5074235;28;20037;-71
2021/09/01 02:46:38;;;;;;;17.65;11.93;;;8.90;92.60;;;;;;5066896;28;20321;-71
2021/09/01 02:49:04;;;;;;;24.15;12.63;;;8.80;92.60;;;;;;5068596;28;20024;-70
2021/09/01 02:51:30;;;;;;;21.73;11.95;;;9.00;91.90;;;;;;5063390;28;20045;-70
2021/09/01 02:53:55;;;;;;;18.02;11.68;;;9.00;92.50;;;;;;5059199;28;20092;-70
2021/09/01 02:56:21;;;;;;;19.40;12.25;;;8.90;92.50;;;;;;5074322;28;20039;-71
2021/09/01 02:58:49;;;;;;;19.25;11.45;;;8.80;92.70;;;;;;5061839;28;20025;-72
2021/09/01 03:01:15;;;;;;;18.20;10.68;;;8.70;92.80;;;;;;5073351;28;20437;-72
2021/09/01 03:03:40;;;;;;;15.05;9.85;;;8.60;92.50;;;;;;5060302;28;20025;-72
2021/09/01 03:06:11;;;;;;;17.95;11.43;;;8.60;92.20;;;;;;5076986;28;20124;-71
2021/09/01 03:08:37;;;;;;;18.55;10.60;;;8.60;92.60;;;;;;5071770;28;20067;-72
2021/09/01 03:11:03;;;;;;;15.70;9.15;;;8.50;92.80;;;;;;5070513;28;20064;-71
2021/09/01 03:13:29;;;;;;;17.55;10.60;;;8.40;92.40;;;;;;5066941;28;20032;-71
2021/09/01 03:15:54;;;;;;;20.25;9.98;;;8.40;92.70;;;;;;5070713;28;20047;-71
2021/09/01 03:18:23;;;;;;;18.98;12.13;;;8.50;91.80;;;;;;5074754;28;20107;-71
2021/09/01 03:20:48;;;;;;;18.45;12.00;;;8.50;91.70;;;;;;5069744;28;20101;-72
2021/09/01 03:23:14;;;;;;;20.23;12.45;;;8.70;91.40;;;;;;5067924;28;20051;-71
2021/09/01 03:25:40;;;;;;;21.92;11.57;;;8.80;91.70;;;;;;5067821;28;20031;-71
2021/09/01 03:28:05;;;;;;;23.52;10.65;;;8.80;92.10;;;;;;5062159;28;20054;-71
2021/09/01 03:30:31;;;;;;;17.20;11.10;;;8.70;92.30;;;;;;5071290;28;20024;-71
2021/09/01 03:32:57;;;;;;;14.15;10.18;;;8.60;92.50;;;;;;5064762;28;20086;-71
2021/09/01 03:35:23;;;;;;;16.58;10.57;;;8.50;92.30;;;;;;5070719;28;20085;-71
2021/09/01 03:37:49;;;;;;;17.58;10.50;;;8.50;92.10;;;;;;5074709;28;20032;-71
2021/09/01 03:40:15;;;;;;;16.40;9.88;;;8.50;91.90;;;;;;5067704;28;20046;-71
2021/09/01 03:42:41;;;;;;;18.75;10.25;;;8.50;91.80;;;;;;5060433;28;20126;-71
2021/09/01 03:45:08;;;;;;;14.55;9.80;;;8.50;91.80;;;;;;5067692;28;20028;-72
2021/09/01 03:47:34;;;;;;;16.35;10.32;;;8.60;91.90;;;;;;5072105;28;20055;-71
2021/09/01 03:50:01;;;;;;;19.27;11.20;;;8.60;91.70;;;;;;5064004;28;20095;-71
2021/09/01 03:52:26;;;;;;;19.02;11.60;;;8.60;91.60;;;;;;5056498;28;20024;-71
2021/09/01 03:54:52;;;;;;;19.38;11.40;;;8.70;91.50;;;;;;5068095;28;20108;-72
2021/09/01 03:57:18;;;;;;;23.13;12.45;;;8.70;91.70;;;;;;5062143;28;20425;-71
2021/09/01 03:59:43;;;;;;;18.77;10.40;;;8.80;91.90;;;;;;5073531;28;20043;-71
2021/09/01 04:02:09;;;;;;;16.40;10.55;;;8.70;92.10;;;;;;5060873;28;20340;-71
2021/09/01 04:04:35;;;;;;;17.85;10.25;;;8.60;92.50;;;;;;5069115;28;20017;-71
2021/09/01 04:07:02;;;;;;;13.98;9.07;;;8.50;92.20;;;;;;5056262;28;20115;-71
2021/09/01 04:09:28;;;;;;;17.85;11.40;;;8.60;91.50;;;;;;5068570;28;20033;-71
2021/09/01 04:11:53;;;;;;;18.05;11.20;;;8.60;91.80;;;;;;5069628;28;20096;-71
2021/09/01 04:14:19;;;;;;;14.82;8.85;;;8.60;91.60;;;;;;5067018;28;20048;-71
2021/09/01 04:16:44;;;;;;;19.17;10.50;;;8.60;91.60;;;;;;5066747;28;20321;-70
2021/09/01 04:19:10;;;;;;;19.42;11.38;;;8.70;91.70;;;;;;5074576;28;20021;-72
2021/09/01 04:21:36;;;;;;;17.50;9.40;;;8.70;91.90;;;;;;5063027;28;20108;-71
2021/09/01 04:24:01;;;;;;;17.15;9.18;;;8.70;91.90;;;;;;5080499;28;20024;-71
2021/09/01 04:26:27;;;;;;;17.67;10.38;;;8.70;92.00;;;;;;5068311;28;20029;-71
2021/09/01 04:28:53;;;;;;;15.68;9.95;;;8.60;92.20;;;;;;5064119;28;20317;-72
2021/09/01 04:31:19;;;;;;;18.13;10.65;;;8.70;91.90;;;;;;5058191;28;20321;-71
2021/09/01 04:33:45;;;;;;;16.52;9.93;;;8.70;91.90;;;;;;5061397;28;20082;-71
2021/09/01 04:36:11;;;;;;;21.80;11.93;;;8.60;92.20;;;;;;5069666;28;20059;-71
2021/09/01 04:38:39;;;;;;;18.77;11.57;;;8.60;92.10;;;;;;5066144;28;20052;-71
2021/09/01 04:41:07;;;;;;;19.73;10.93;;;8.60;92.30;;;;;;5072624;28;20029;-71
2021/09/01 04:43:33;;;;;;;16.17;9.48;;;8.50;92.70;;;;;;5061421;28;20025;-72
2021/09/01 04:45:59;;;;;;;17.13;11.13;;;8.40;92.40;;;;;;5064350;28;20029;-72
2021/09/01 04:48:26;;;;;;;18.90;11.20;;;8.30;92.30;;;;;;5068647;28;20033;-71
2021/09/01 04:50:52;;;;;;;13.02;8.85;;;8.30;92.40;;;;;;5068742;28;20032;-72
2021/09/01 04:53:20;;;;;;;14.02;9.23;;;8.30;92.40;;;;;;5061635;28;20029;-71
2021/09/01 04:55:47;;;;;;;17.20;10.18;;;8.30;92.10;;;;;;5061795;28;20033;-71
2021/09/01 04:58:13;;;;;;;14.32;9.43;;;8.30;91.60;;;;;;5075348;28;20024;-72
2021/09/01 05:00:39;;;;;;;20.40;10.90;;;8.40;91.70;;;;;;5064762;28;20025;-71
2021/09/01 05:03:05;;;;;;;16.58;10.25;;;8.50;91.80;;;;;;5060160;28;20380;-71
2021/09/01 05:05:31;;;;;;;19.30;11.70;;;8.50;91.70;;;;;;5062439;28;20068;-70
2021/09/01 05:07:57;;;;;;;20.88;11.60;;;8.50;91.70;;;;;;5068348;28;20334;-72
2021/09/01 05:10:23;;;;;;;16.95;10.93;;;8.60;91.80;;;;;;5065233;28;20032;-71
2021/09/01 05:12:50;;;;;;;16.42;10.90;;;8.70;91.40;;;;;;5072763;28;20036;-71
2021/09/01 05:15:16;;;;;;;16.92;10.25;;;8.70;91.70;;;;;;5067470;28;20028;-71
2021/09/01 05:17:42;;;;;;;18.33;11.82;;;8.70;91.60;;;;;;5073715;28;20024;-70
2021/09/01 05:20:09;;;;;;;20.00;11.38;;;8.70;91.80;;;;;;5068838;28;20025;-71
2021/09/01 05:22:37;;;;;;;18.95;11.88;;;8.80;91.70;;;;;;5067173;28;20157;-70
2021/09/01 05:25:05;;;;;;;19.48;11.73;;;8.80;91.70;;;;;;5071127;28;20035;-70
2021/09/01 05:27:35;;;;;;;16.35;10.52;;;8.90;91.60;;;;;;5075333;28;20025;-71
2021/09/01 05:30:03;;;;;;;21.67;11.65;;;8.90;91.60;;;;;;5069621;28;20617;-71
2021/09/01 05:32:30;;;;;;;22.05;13.73;;;8.90;91.80;;;;;;5061230;28;20108;-71
2021/09/01 05:35:00;;;;;;;20.63;12.30;;;8.90;91.70;;;;;;5053804;28;20052;-70
2021/09/01 05:37:27;;;;;;;23.00;13.13;;;8.80;91.80;;;;;;5064475;28;20030;-71
2021/09/01 05:39:58;;;;;;;20.90;12.75;;;8.80;91.60;;;;;;5077115;28;20048;-71
2021/09/01 05:42:26;;;;;;;19.75;11.20;;;8.90;91.50;;;;;;5079080;28;20396;-70
2021/09/01 05:44:53;;;;;;;18.98;11.57;;;9.00;91.50;;;;;;5077968;28;20032;-70
2021/09/01 05:47:20;;;;;;;18.80;10.98;;;9.00;91.40;;;;;;5065581;28;20104;-69
2021/09/01 05:49:48;;;;;;;17.58;11.43;;;9.20;91.20;;;;;;5078839;28;20324;-69
2021/09/01 05:52:15;;;;;;;18.13;11.43;;;9.30;91.30;;;;;;5077816;28;20029;-71
2021/09/01 05:54:47;;;;;;;22.45;12.27;;;9.40;91.40;;;;;;5077342;28;20024;-72
2021/09/01 05:57:15;;;;;;;14.90;10.18;;;9.50;91.50;;;;;;5075982;28;20021;-72
2021/09/01 06:00:29;;;;;;;17.35;10.77;;;9.60;91.40;;;;;;5078822;28;20020;-71
2021/09/01 06:03:17;;;;;;;15.25;10.05;;;9.80;91.70;;;;;;5058273;28;20041;-71
2021/09/01 06:05:45;;;;;;;18.38;11.20;;;9.90;91.50;;;;;;5058602;28;20516;-72
2021/09/01 06:08:12;;;;;;;20.63;11.63;;;10.00;91.50;;;;;;5058422;28;20029;-71
2021/09/01 06:10:38;;;;;;;19.10;11.50;;;10.10;91.50;;;;;;5066689;28;20329;-71
2021/09/01 06:13:10;;;;;;;23.42;12.50;;;10.20;91.20;;;;;;5077294;28;20027;-71
2021/09/01 06:15:39;;;;;;;17.90;12.25;;;10.50;90.80;;;;;;5078241;28;20440;-71
2021/09/01 06:18:06;;;;;;;17.20;11.75;;;11.20;90.60;;;;;;5078376;28;20032;-71
2021/09/01 06:20:33;;;;;;;19.50;12.95;;;11.80;90.70;;;;;;5078427;28;20016;-71
2021/09/01 06:22:59;;;;;;;18.13;13.48;;;12.40;90.60;;;;;;5077106;28;20052;-71
2021/09/01 06:25:25;;;;;;;19.63;12.32;;;12.90;91.40;;;;;;5076457;28;20020;-71
2021/09/01 06:27:51;;;;;;;16.58;10.88;;;13.10;94.10;;;;;;5074005;28;20030;-71
2021/09/01 06:30:17;;;;;;;19.60;10.35;;;12.70;96.20;;;;;;5077114;28;20071;-72
2021/09/01 06:32:43;;;;;;;18.27;10.40;;;12.10;95.50;;;;;;5077944;28;20429;-71
2021/09/01 06:35:09;;;;;;;18.98;11.52;;;11.70;94.10;;;;;;5078242;28;20023;-72
2021/09/01 06:37:36;;;;;;;18.92;12.77;;;11.50;93.30;;;;;;5065177;28;20020;-71
2021/09/01 06:40:02;;;;;;;17.25;11.27;;;11.40;92.90;;;;;;5076210;28;20016;-72
2021/09/01 06:42:28;;;;;;;20.15;11.65;;;11.30;92.60;;;;;;5076334;28;20043;-71
2021/09/01 06:44:54;;;;;;;19.38;12.27;;;11.30;91.90;;;;;;5078086;28;20017;-71
2021/09/01 06:47:20;;;;;;;19.15;12.55;;;11.40;92.20;;;;;;5077516;28;20021;-71
2021/09/01 06:49:46;;;;;;;20.90;13.02;;;11.50;92.70;;;;;;5064628;28;20032;-72
2021/09/01 06:52:12;;;;;;;20.00;12.25;;;11.60;92.60;;;;;;5060619;28;20039;-69
2021/09/01 06:54:38;;;;;;;20.67;11.95;;;11.70;92.60;;;;;;5071459;28;20032;-71
2021/09/01 06:57:04;;;;;;;18.17;12.85;;;11.90;92.70;;;;;;5075807;28;20028;-69
2021/09/01 06:59:31;;;;;;;19.55;13.18;;;12.00;93.60;;;;;;5075904;28;20317;-69
2021/09/01 07:01:59;;;;;;;19.20;12.68;;;12.00;94.60;;;;;;5073018;28;20424;-70
2021/09/01 07:04:25;;;;;;;17.25;12.30;;;12.10;95.00;;;;;;5075504;28;20016;-69
2021/09/01 07:06:51;;;;;;;18.42;11.45;;;12.20;95.20;;;;;;5075752;28;20078;-69
2021/09/01 07:09:16;;;;;;;19.23;11.98;;;12.20;96.30;;;;;;5074341;28;20146;-70
2021/09/01 07:11:42;;;;;;;17.92;11.63;;;12.30;96.20;;;;;;5075728;28;20035;-70
2021/09/01 07:14:08;;;;;;;16.55;11.30;;;12.40;97.10;;;;;;5072240;28;20039;-70
2021/09/01 07:16:34;;;;;;;15.75;10.75;;;12.50;98.00;;;;;;5074209;28;20028;-69
2021/09/01 07:19:00;;;;;;;12.43;9.20;;;12.50;98.00;;;;;;5075505;28;20050;-69
2021/09/01 07:21:26;;;;;;;16.73;8.73;;;12.60;98.00;;;;;;5074433;28;20028;-70
2021/09/01 07:23:52;;;;;;;13.85;8.73;;;12.60;98.00;;;;;;5073377;28;20480;-70
2021/09/01 07:26:20;;;;;;;14.10;9.45;;;12.40;98.00;;;;;;5075285;28;20020;-70
2021/09/01 07:28:47;;;;;;;35.95;10.40;;;12.50;98.00;;;;;;5075201;28;20034;-70
2021/09/01 07:31:12;;;;;;;13.85;9.32;;;12.70;98.00;;;;;;5075429;28;20025;-70
2021/09/01 07:33:38;;;;;;;14.95;9.52;;;12.70;98.00;;;;;;5076113;28;20031;-70
2021/09/01 07:36:04;;;;;;;21.05;10.25;;;12.80;98.00;;;;;;5075424;28;20027;-70
2021/09/01 07:38:30;;;;;;;16.65;10.00;;;13.00;98.00;;;;;;5060714;28;20044;-70
2021/09/01 07:40:55;;;;;;;14.70;9.65;;;13.40;98.00;;;;;;5062824;28;20104;-70
2021/09/01 07:43:21;;;;;;;13.52;9.13;;;13.70;98.00;;;;;;5073739;28;20028;-71
2021/09/01 07:45:47;;;;;;;14.38;10.45;;;13.60;98.00;;;;;;5065806;28;20074;-71
2021/09/01 07:48:15;;;;;;;13.40;9.40;;;13.70;98.00;;;;;;5058167;28;20040;-71
2021/09/01 07:50:42;;;;;;;15.15;9.52;;;13.90;98.00;;;;;;5073008;28;20444;-71
2021/09/01 07:53:07;;;;;;;12.15;8.95;;;14.20;98.00;;;;;;5062928;28;20035;-71
2021/09/01 07:55:33;;;;;;;14.13;8.82;;;14.20;98.00;;;;;;5071353;28;20020;-72
2021/09/01 07:57:59;;;;;;;13.68;8.95;;;14.40;98.00;;;;;;5073334;28;20025;-71
2021/09/01 08:00:25;;;;;;;17.15;9.82;;;14.40;98.00;;;;;;5071941;28;20416;-71
2021/09/01 08:02:52;;;;;;;11.13;7.53;;;14.60;98.00;;;;;;5057845;28;20028;-72
2021/09/01 08:05:18;;;;;;;10.13;6.70;;;15.30;98.00;;;;;;5073499;28;20107;-72
2021/09/01 08:07:44;;;;;;;11.82;6.50;;;16.60;98.00;;;;;;5069394;28;20052;-71
2021/09/01 08:10:10;;;;;;;10.88;7.20;;;17.40;97.30;;;;;;5058600;28;20487;-71
2021/09/01 08:12:39;;;;;;;9.50;6.38;;;17.90;95.50;;;;;;5056279;28;20162;-71
2021/09/01 08:15:12;;;;;;;11.10;6.32;;;18.40;94.20;;;;;;5074030;28;20028;-71
2021/09/01 08:17:38;;;;;;;11.02;6.43;;;18.60;92.50;;;;;;5073411;28;20025;-70
2021/09/01 08:20:05;;;;;;;9.05;6.40;;;18.20;93.40;;;;;;5074050;28;20421;-72
2021/09/01 08:22:32;;;;;;;9.23;6.28;;;17.40;95.10;;;;;;5071366;28;20025;-70
2021/09/01 08:24:57;;;;;;;9.90;6.25;;;17.50;96.20;;;;;;5069018;28;20418;-70
2021/09/01 08:27:23;;;;;;;9.60;6.20;;;18.30;94.50;;;;;;5065404;28;20040;-71
2021/09/01 08:29:51;;;;;;;9.38;6.50;;;18.50;92.70;;;;;;5068736;28;20039;-71
2021/09/01 08:32:17;;;;;;;10.35;6.10;;;18.80;92.50;;;;;;5068250;28;20040;-71
2021/09/01 08:34:45;;;;;;;8.05;5.28;;;18.60;92.10;;;;;;5070774;28;20036;-71
2021/09/01 08:37:11;;;;;;;10.35;6.43;;;19.30;92.10;;;;;;5070040;28;20076;-70
2021/09/01 08:39:36;;;;;;;8.68;5.40;;;20.30;88.00;;;;;;5069281;28;20040;-70
2021/09/01 08:42:03;;;;;;;9.75;6.00;;;20.70;87.40;;;;;;5069657;28;20302;-70
2021/09/01 08:44:29;;;;;;;11.05;6.30;;;21.10;86.40;;;;;;5070204;28;20024;-71
2021/09/01 08:47:00;;;;;;;12.43;7.03;;;21.40;84.20;;;;;;5070580;28;20036;-71
2021/09/01 08:49:27;;;;;;;10.25;6.55;;;21.80;84.30;;;;;;5071141;28;20115;-71
2021/09/01 08:51:55;;;;;;;11.93;7.78;;;21.30;84.70;;;;;;5073138;28;20031;-71
2021/09/01 08:54:24;;;;;;;10.75;7.13;;;20.50;86.10;;;;;;5071394;28;20128;-71
2021/09/01 08:56:50;;;;;;;11.90;7.30;;;20.40;88.10;;;;;;5069191;28;20033;-71
2021/09/01 08:59:16;;;;;;;9.85;6.47;;;20.30;87.70;;;;;;5069599;28;20054;-71
2021/09/01 09:01:50;;;;;;;10.85;6.85;;;20.40;88.20;;;;;;5069970;28;20036;-71
2021/09/01 09:04:30;;;;;;;11.30;6.93;;;21.10;86.00;;;;;;5070179;28;21588;-71
2021/09/01 09:07:00;;;;;;;11.30;7.43;;;20.20;86.90;;;;;;5070513;28;20060;-71
2021/09/01 09:09:32;;;;;;;10.15;6.88;;;19.30;89.80;;;;;;5071512;28;20111;-71
2021/09/01 09:12:00;;;;;;;10.82;6.43;;;19.00;91.00;;;;;;5071143;28;20044;-71
2021/09/01 09:14:34;;;;;;;12.27;6.60;;;19.70;90.20;;;;;;5073865;28;20087;-71
2021/09/01 09:17:13;;;;;;;13.98;7.70;;;21.40;86.10;;;;;;5074004;28;20044;-71
2021/09/01 09:19:52;;;;;;;11.77;7.18;;;22.90;81.20;;;;;;5074893;28;20020;-71
2021/09/01 09:22:30;;;;;;;12.63;6.60;;;23.50;79.90;;;;;;5074782;28;21364;-71
2021/09/01 09:25:24;;;;;;;11.82;7.40;;;22.50;80.10;;;;;;5072260;28;20724;-71
2021/09/01 09:27:54;;;;;;;16.38;6.25;;;22.30;81.30;;;;;;5074193;28;20028;-71
2021/09/01 09:30:20;;;;;;;8.65;5.18;;;22.50;79.60;;;;;;5074892;28;20025;-71
2021/09/01 09:32:55;;;;;;;10.65;6.47;;;23.10;80.00;;;;;;5073392;28;20287;-71
2021/09/01 09:35:21;;;;;;;10.23;6.00;;;23.70;76.30;;;;;;5072631;28;20170;-71
2021/09/01 09:38:00;;;;;;;11.15;7.38;;;23.00;77.50;;;;;;5074858;28;20495;-71
2021/09/01 09:40:25;;;;;;;10.63;7.20;;;23.00;79.20;;;;;;5073877;28;20016;-71
2021/09/01 09:42:51;;;;;;;10.63;7.00;;;23.20;78.70;;;;;;5073417;28;20362;-71
2021/09/01 09:45:23;;;;;;;11.00;7.47;;;23.20;79.80;;;;;;5073954;28;20021;-71
2021/09/01 09:47:50;;;;;;;13.10;7.35;;;23.70;78.40;;;;;;5076211;28;20032;-71
2021/09/01 09:50:17;;;;;;;10.82;6.50;;;24.10;76.20;;;;;;5078857;28;20052;-71
2021/09/01 09:52:43;;;;;;;10.98;5.47;;;23.30;77.80;;;;;;5079267;28;20040;-71
2021/09/01 09:55:13;;;;;;;9.52;5.25;;;23.30;78.90;;;;;;5069965;28;20111;-71
2021/09/01 09:58:01;;;;;;;9.80;6.07;;;24.00;77.00;;;;;;5076228;28;20031;-71
2021/09/01 10:00:29;;;;;;;9.90;6.65;;;24.80;74.20;;;;;;5074963;28;20037;-71
2021/09/01 10:02:55;;;;;;;9.02;6.13;;;24.80;74.10;;;;;;5074428;28;20020;-71
2021/09/01 10:05:24;;;;;;;9.27;5.63;;;24.20;73.50;;;;;;5072449;28;20049;-71
2021/09/01 10:07:50;;;;;;;9.75;6.60;;;23.70;75.20;;;;;;5069376;28;20036;-71
2021/09/01 10:10:16;;;;;;;10.38;6.65;;;23.30;76.80;;;;;;5069122;28;20027;-71
2021/09/01 10:12:45;;;;;;;10.02;6.05;;;23.30;77.10;;;;;;5072039;28;20304;-71
2021/09/01 10:15:16;;;;;;;11.00;6.97;;;23.50;77.90;;;;;;5074076;28;20032;-70
2021/09/01 10:17:44;;;;;;;10.25;6.85;;;24.00;76.10;;;;;;5071589;28;20029;-71
2021/09/01 10:20:15;;;;;;;8.50;5.85;;;24.20;76.00;;;;;;5073643;28;20020;-71
2021/09/01 10:22:41;;;;;;;9.35;5.80;;;24.30;74.40;;;;;;5073290;28;20036;-71
2021/09/01 10:25:07;;;;;;;8.65;5.63;;;23.80;74.50;;;;;;5070816;28;20044;-71
2021/09/01 10:27:33;;;;;;;13.05;6.30;;;23.30;75.70;;;;;;5071035;28;20025;-71
2021/09/01 10:30:11;;;;;;;9.13;6.20;;;22.30;77.80;;;;;;5073150;28;20438;-70
2021/09/01 10:32:47;;;;;;;9.65;5.38;;;21.80;78.70;;;;;;5074585;28;20074;-71
2021/09/01 10:35:16;;;;;;;10.15;6.50;;;22.20;78.50;;;;;;5073106;28;20033;-71
2021/09/01 10:37:43;;;;;;;11.35;6.75;;;22.60;78.00;;;;;;5073403;28;20086;-71
2021/09/01 10:40:33;;;;;;;9.85;6.13;;;22.90;78.70;;;;;;5070072;28;20328;-71
2021/09/01 10:43:20;;;;;;;13.00;6.47;;;23.80;77.30;;;;;;5071513;28;20452;-70
2021/09/01 10:45:53;;;;;;;10.43;6.55;;;24.20;76.10;;;;;;5070247;28;20295;-70
2021/09/01 10:48:19;;;;;;;8.75;5.40;;;24.40;74.10;;;;;;5069892;28;20321;-70
2021/09/01 10:50:46;;;;;;;10.00;5.45;;;24.20;74.60;;;;;;5069675;28;20028;-71
2021/09/01 10:53:23;;;;;;;9.00;5.85;;;24.10;74.60;;;;;;5071051;28;20021;-70
2021/09/01 10:55:56;;;;;;;10.27;7.05;;;23.80;73.30;;;;;;5071435;28;20444;-69
2021/09/01 10:58:29;;;;;;;12.90;6.63;;;23.10;75.80;;;;;;5071578;28;20039;-70
2021/09/01 11:01:05;;;;;;;12.57;7.18;;;23.20;77.10;;;;;;5066923;28;20286;-70
2021/09/01 11:03:42;;;;;;;10.75;6.72;;;23.40;76.10;;;;;;5065502;28;20453;-71
2021/09/01 11:06:14;;;;;;;9.48;5.97;;;23.40;76.70;;;;;;5070788;28;20048;-70
2021/09/01 11:09:07;;;;;;;11.15;6.57;;;23.30;78.30;;;;;;5071876;28;20131;-70
2021/09/01 11:11:47;;;;;;;10.10;6.15;;;23.40;75.40;;;;;;5071583;28;20062;-70
2021/09/01 11:14:38;;;;;;;8.35;5.35;;;23.40;78.50;;;;;;5065678;28;20114;-71
2021/09/01 11:17:25;;;;;;;8.27;5.40;;;23.80;74.10;;;;;;5060162;28;20123;-71
2021/09/01 11:19:54;;;;;;;10.90;6.45;;;24.30;74.50;;;;;;5067211;28;20314;-70
2021/09/01 11:22:26;;;;;;;12.48;6.68;;;24.20;75.00;;;;;;5063069;28;20090;-70
2021/09/01 11:25:01;;;;;;;10.65;5.95;;;23.80;75.60;;;;;;5068155;28;20055;-71
2021/09/01 11:27:28;;;;;;;8.43;5.82;;;23.70;77.10;;;;;;5069006;28;20025;-70
2021/09/01 11:30:13;;;;;;;10.80;5.80;;;23.90;75.10;;;;;;5070622;28;20375;-70
2021/09/01 11:32:40;;;;;;;;;;;24.00;75.30;;;;;;5060922;28;20085;-70
2021/09/01 11:35:19;;;;;;;7.20;4.45;;;24.30;75.90;;;;;;5067366;28;19920;-70
2021/09/01 11:37:55;;;;;;;9.93;5.53;;;24.80;72.90;;;;;;5064239;28;20075;-70
2021/09/01 11:40:21;;;;;;;8.35;5.38;;;24.20;71.70;;;;;;5069187;28;20036;-70
2021/09/01 11:42:50;;;;;;;9.73;5.22;;;23.70;75.60;;;;;;5070901;28;20025;-71
2021/09/01 11:45:15;;;;;;;9.45;5.25;;;23.90;74.20;;;;;;5067364;28;20047;-71
2021/09/01 11:47:44;;;;;;;8.55;5.38;;;24.20;73.40;;;;;;5066764;28;20032;-70
2021/09/01 11:50:11;;;;;;;6.93;4.35;;;24.00;73.90;;;;;;5066156;28;20025;-70
2021/09/01 11:52:37;;;;;;;7.88;4.90;;;24.10;73.70;;;;;;5064727;28;20044;-71
2021/09/01 11:55:04;;;;;;;8.27;5.40;;;24.40;72.70;;;;;;5062853;28;20047;-70
2021/09/01 11:57:32;;;;;;;8.70;5.10;;;23.50;72.90;;;;;;5066280;28;20025;-70
2021/09/01 11:59:59;;;;;;;12.27;6.10;;;22.80;75.80;;;;;;5065042;28;20108;-70
2021/09/01 12:02:30;;;;;;;9.20;5.40;;;23.30;75.30;;;;;;5068305;28;20054;-70
2021/09/01 12:04:56;;;;;;;8.93;4.70;;;23.50;73.20;;;;;;5067715;28;20037;-72
2021/09/01 12:07:28;;;;;;;9.27;5.00;;;23.20;73.80;;;;;;5070108;28;20051;-70
2021/09/01 12:10:07;;;;;;;9.25;5.53;;;22.60;76.10;;;;;;5068125;28;21326;-70
2021/09/01 12:12:38;;;;;;;10.35;6.25;;;21.80;76.20;;;;;;5070683;28;20093;-72
2021/09/01 12:15:12;;;;;;;11.50;5.72;;;21.30;77.60;;;;;;5070168;28;20554;-71
2021/09/01 12:17:39;;;;;;;11.35;5.85;;;20.90;79.20;;;;;;5069851;28;20033;-71
2021/09/01 12:20:07;;;;;;;7.90;5.32;;;21.10;80.20;;;;;;5063748;28;20040;-69
2021/09/01 12:22:42;;;;;;;8.73;5.22;;;20.90;80.30;;;;;;5066253;28;20325;-70
2021/09/01 12:25:11;;;;;;;9.00;4.80;;;21.50;78.50;;;;;;5066648;28;20470;-70
2021/09/01 12:27:39;;;;;;;7.53;4.43;;;22.20;76.50;;;;;;5067985;28;20039;-70
2021/09/01 12:30:11;;;;;;;7.45;4.78;;;22.70;77.20;;;;;;5062434;28;20086;-70
2021/09/01 12:32:38;;;;;;;8.32;5.38;;;22.50;75.20;;;;;;5062499;28;20670;-69
2021/09/01 12:35:09;;;;;;;7.82;4.85;;;21.60;78.80;;;;;;5062860;28;20075;-69
2021/09/01 12:37:37;;;;;;;7.53;4.60;;;21.30;81.70;;;;;;5068691;28;20051;-71
2021/09/01 12:40:15;;;;;;;11.82;5.28;;;22.20;77.60;;;;;;5065393;28;20103;-70
2021/09/01 12:42:44;;;;;;;9.05;4.72;;;22.40;76.30;;;;;;5059555;28;20028;-70
2021/09/01 12:45:20;;;;;;;8.52;4.85;;;22.30;75.70;;;;;;5060573;28;20099;-70